createdAt,value
2023-02-01T00:00:28.310Z,1.27
2023-02-01T00:02:54.808Z,1.29
2023-02-01T00:05:21.239Z,0.99
2023-02-01T00:07:48.222Z,0.81
2023-02-01T00:10:14.740Z,0.94
2023-02-01T00:12:41.166Z,0.99
2023-02-01T00:15:08.146Z,0.86
2023-02-01T00:17:34.526Z,0.83
2023-02-01T00:20:00.915Z,0.76
2023-02-01T00:22:27.334Z,0.83
2023-02-01T00:24:53.716Z,0.64
2023-02-01T00:27:22.180Z,0.56
2023-02-01T00:29:48.959Z,0.57
2023-02-01T00:32:15.724Z,0.58
2023-02-01T00:34:42.140Z,0.66
2023-02-01T00:37:08.592Z,0.70
2023-02-01T00:39:35.107Z,0.55
2023-02-01T00:42:03.024Z,0.58
2023-02-01T00:44:33.969Z,0.71
2023-02-01T00:47:01.149Z,0.66
2023-02-01T00:49:27.904Z,0.73
2023-02-01T00:51:54.418Z,0.68
2023-02-01T00:54:20.922Z,0.53
2023-02-01T00:56:47.327Z,0.50
2023-02-01T00:59:13.849Z,0.52
2023-02-01T01:01:40.357Z,0.44
2023-02-01T01:04:07.174Z,0.43
2023-02-01T01:06:34.866Z,0.51
2023-02-01T01:09:03.947Z,0.45
2023-02-01T01:11:33.191Z,0.39
2023-02-01T01:14:01.002Z,0.40
2023-02-01T01:16:30.667Z,0.37
2023-02-01T01:18:58.051Z,0.45
2023-02-01T01:21:25.274Z,0.40
2023-02-01T01:23:51.847Z,0.44
2023-02-01T01:26:24.216Z,0.43
2023-02-01T01:28:51.299Z,0.41
2023-02-01T01:31:19.777Z,0.39
2023-02-01T01:33:49.846Z,0.37
2023-02-01T01:36:16.521Z,0.45
2023-02-01T01:38:43.471Z,0.32
2023-02-01T01:41:15.273Z,0.19
2023-02-01T01:43:59.582Z,0.09
2023-02-01T01:46:27.913Z,0.06
2023-02-01T01:49:02.231Z,-0.06
2023-02-01T01:51:30.060Z,-0.03
2023-02-01T01:54:03.822Z,0.04
2023-02-01T01:56:33.049Z,0.05
2023-02-01T01:59:00.397Z,0.16
2023-02-01T02:01:27.410Z,0.22
2023-02-01T02:03:55.257Z,0.15
2023-02-01T02:06:28.514Z,0.03
2023-02-01T02:08:54.998Z,-0.05
2023-02-01T02:11:21.443Z,-0.02
2023-02-01T02:13:52.810Z,-0.03
2023-02-01T02:16:56.085Z,0.03
2023-02-01T02:19:49.857Z,0.11
2023-02-01T02:22:22.307Z,0.18
2023-02-01T02:25:13.507Z,0.17
2023-02-01T02:27:58.717Z,0.09
2023-02-01T02:31:08.398Z,0.10
2023-02-01T02:33:53.269Z,0.06
2023-02-01T02:36:44.469Z,-0.02
2023-02-01T02:39:47.987Z,-0.01
2023-02-01T02:42:40.537Z,-0.03
2023-02-01T02:45:41.834Z,-0.04
2023-02-01T02:48:21.761Z,0.09
2023-02-01T02:51:17.750Z,0.20
2023-02-01T02:54:17.257Z,0.30
2023-02-01T02:57:02.115Z,0.47
2023-02-01T02:59:48.472Z,0.57
2023-02-01T03:02:35.248Z,0.77
2023-02-01T03:05:01.882Z,0.74
2023-02-01T03:07:50.344Z,0.68
2023-02-01T03:10:28.671Z,0.63
2023-02-01T03:13:00.301Z,0.58
2023-02-01T03:15:34.440Z,0.72
2023-02-01T03:18:04.205Z,0.85
2023-02-01T03:20:31.610Z,0.88
2023-02-01T03:23:00.254Z,0.89
2023-02-01T03:25:31.697Z,1.00
2023-02-01T03:28:11.301Z,1.11
2023-02-01T03:30:42.999Z,1.17
2023-02-01T03:33:24.120Z,1.19
2023-02-01T03:35:56.587Z,1.22
2023-02-01T03:38:35.284Z,1.12
2023-02-01T03:41:10.660Z,1.16
2023-02-01T03:43:46.262Z,1.17
2023-02-01T03:46:20.627Z,1.14
2023-02-01T03:48:47.577Z,1.18
2023-02-01T03:51:14.624Z,1.14
2023-02-01T03:53:42.849Z,1.04
2023-02-01T03:56:12.492Z,0.99
2023-02-01T03:58:38.953Z,0.99
2023-02-01T04:01:05.381Z,0.92
2023-02-01T04:03:33.104Z,0.83
2023-02-01T04:05:59.513Z,0.81
2023-02-01T04:08:25.950Z,0.85
2023-02-01T04:10:52.445Z,0.86
2023-02-01T04:13:18.928Z,0.93
2023-02-01T04:15:46.733Z,0.96
2023-02-01T04:18:13.142Z,0.89
2023-02-01T04:20:39.558Z,0.87
2023-02-01T04:23:05.943Z,0.81
2023-02-01T04:25:32.369Z,0.90
2023-02-01T04:27:58.865Z,1.01
2023-02-01T04:30:25.701Z,1.04
2023-02-01T04:32:52.329Z,1.06
2023-02-01T04:35:18.917Z,1.13
2023-02-01T04:37:45.462Z,1.08
2023-02-01T04:40:12.348Z,1.08
2023-02-01T04:42:38.776Z,1.09
2023-02-01T04:45:07.430Z,1.09
2023-02-01T04:47:35.238Z,0.90
2023-02-01T04:50:01.841Z,0.76
2023-02-01T04:52:28.376Z,0.52
2023-02-01T04:54:59.323Z,0.51
2023-02-01T04:57:26.659Z,0.43
2023-02-01T04:59:53.054Z,0.48
2023-02-01T05:02:19.549Z,0.51
2023-02-01T05:04:46.026Z,0.48
2023-02-01T05:07:12.602Z,0.36
2023-02-01T05:09:39.094Z,0.20
2023-02-01T05:12:24.369Z,0.17
2023-02-01T05:14:50.767Z,0.35
2023-02-01T05:17:17.198Z,0.50
2023-02-01T05:19:43.644Z,0.43
2023-02-01T05:22:10.053Z,0.27
2023-02-01T05:24:36.523Z,0.19
2023-02-01T05:27:02.984Z,0.23
2023-02-01T05:29:29.555Z,0.25
2023-02-01T05:31:56.037Z,0.28
2023-02-01T05:34:22.527Z,0.25
2023-02-01T05:36:48.942Z,0.16
2023-02-01T05:39:15.386Z,0.08
2023-02-01T05:41:41.971Z,-0.02
2023-02-01T05:44:08.425Z,-0.02
2023-02-01T05:46:36.282Z,-0.16
2023-02-01T05:49:03.215Z,-0.22
2023-02-01T05:51:29.727Z,-0.18
2023-02-01T05:53:56.117Z,-0.15
2023-02-01T05:56:22.672Z,-0.13
2023-02-01T05:58:49.081Z,-0.09
2023-02-01T06:01:15.488Z,-0.06
2023-02-01T06:03:41.900Z,-0.02
2023-02-01T06:06:08.350Z,-0.02
2023-02-01T06:08:34.779Z,-0.03
2023-02-01T06:11:05.785Z,-0.19
2023-02-01T06:13:34.594Z,-0.33
2023-02-01T06:16:04.652Z,-0.44
2023-02-01T06:18:45.477Z,-0.34
2023-02-01T06:21:16.024Z,-0.48
2023-02-01T06:23:54.030Z,-0.61
2023-02-01T06:26:21.959Z,-0.53
2023-02-01T06:28:48.578Z,-0.31
2023-02-01T06:31:15.127Z,-0.18
2023-02-01T06:33:47.669Z,-0.28
2023-02-01T06:36:25.161Z,-0.38
2023-02-01T06:39:14.832Z,-0.41
2023-02-01T06:41:41.490Z,-0.35
2023-02-01T06:44:39.708Z,-0.24
2023-02-01T06:47:10.699Z,-0.38
2023-02-01T06:49:37.168Z,-0.27
2023-02-01T06:52:03.704Z,-0.25
2023-02-01T06:54:35.965Z,-0.50
2023-02-01T06:57:02.410Z,-0.59
2023-02-01T06:59:29.142Z,-0.45
2023-02-01T07:01:55.595Z,-0.42
2023-02-01T07:04:31.243Z,-0.43
2023-02-01T07:06:57.749Z,-0.39
2023-02-01T07:09:27.828Z,-0.45
2023-02-01T07:11:57.291Z,-0.52
2023-02-01T07:14:34.294Z,-0.48
2023-02-01T07:19:53.712Z,-0.45
2023-02-01T07:22:38.171Z,-0.31
2023-02-01T07:27:57.190Z,-0.01
2023-02-01T07:30:24.770Z,0.04
2023-02-01T07:32:51.935Z,0.10
2023-02-01T07:38:19.079Z,-0.01
2023-02-01T07:40:48.291Z,-0.06
2023-02-01T07:43:18.246Z,-0.15
2023-02-01T07:45:52.902Z,-0.14
2023-02-01T07:48:42.163Z,-0.06
2023-02-01T07:51:17.975Z,-0.02
2023-02-01T07:53:56.452Z,-0.06
2023-02-01T07:56:23.548Z,-0.02
2023-02-01T07:58:57.153Z,-0.01
2023-02-01T08:01:29.457Z,0.14
2023-02-01T08:04:06.801Z,0.35
2023-02-01T08:06:35.499Z,0.55
2023-02-01T08:09:02.346Z,0.65
2023-02-01T08:11:29.065Z,0.72
2023-02-01T08:13:55.716Z,0.76
2023-02-01T08:16:22.634Z,0.81
2023-02-01T08:18:51.881Z,0.90
2023-02-01T08:21:22.932Z,0.97
2023-02-01T08:23:49.936Z,0.96
2023-02-01T08:26:16.332Z,0.97
2023-02-01T08:28:45.332Z,1.03
2023-02-01T08:31:15.800Z,1.16
2023-02-01T08:33:43.779Z,1.15
2023-02-01T08:36:11.871Z,1.26
2023-02-01T08:38:40.423Z,1.33
2023-02-01T08:41:13.609Z,1.37
2023-02-01T08:43:42.311Z,1.53
2023-02-01T08:46:12.726Z,1.66
2023-02-01T08:48:41.447Z,1.79
2023-02-01T08:51:15.743Z,1.88
2023-02-01T08:53:42.537Z,1.93
2023-02-01T08:56:11.248Z,2.03
2023-02-01T08:58:37.994Z,1.96
2023-02-01T09:01:10.125Z,1.89
2023-02-01T09:03:36.858Z,1.90
2023-02-01T09:06:09.091Z,2.01
2023-02-01T09:08:38.053Z,2.18
2023-02-01T09:11:07.992Z,2.18
2023-02-01T09:13:37.440Z,2.20
2023-02-01T09:16:05.170Z,2.23
2023-02-01T09:18:31.750Z,2.41
2023-02-01T09:20:58.285Z,2.51
2023-02-01T09:23:27.680Z,2.58
2023-02-01T09:25:54.124Z,2.65
2023-02-01T09:28:20.921Z,2.81
2023-02-01T09:30:47.575Z,2.87
2023-02-01T09:33:14.098Z,2.95
2023-02-01T09:35:40.969Z,3.05
2023-02-01T09:38:32.886Z,3.07
2023-02-01T09:41:04.985Z,3.12
2023-02-01T09:43:43.546Z,3.19
2023-02-01T09:46:52.350Z,3.34
2023-02-01T09:49:30.229Z,3.47
2023-02-01T09:51:59.683Z,3.62
2023-02-01T09:54:44.462Z,3.68
2023-02-01T09:57:21.886Z,3.78
2023-02-01T09:59:56.031Z,3.91
2023-02-01T10:02:28.958Z,3.95
2023-02-01T10:04:58.168Z,4.07
2023-02-01T10:07:48.976Z,4.17
2023-02-01T10:10:39.438Z,4.40
2023-02-01T10:13:29.818Z,4.72
2023-02-01T10:16:17.566Z,4.74
2023-02-01T10:18:52.935Z,4.71
2023-02-01T10:21:22.339Z,4.74
2023-02-01T10:24:17.331Z,4.87
2023-02-01T10:26:52.133Z,5.05
2023-02-01T10:29:25.644Z,5.19
2023-02-01T10:31:53.188Z,5.35
2023-02-01T10:34:25.865Z,5.47
2023-02-01T10:37:02.139Z,5.54
2023-02-01T10:39:28.912Z,5.62
2023-02-01T10:41:57.119Z,5.71
2023-02-01T10:44:28.636Z,5.86
2023-02-01T10:46:55.191Z,6.03
2023-02-01T10:49:35.400Z,6.15
2023-02-01T10:52:10.749Z,6.15
2023-02-01T10:54:39.616Z,6.23
2023-02-01T10:57:11.257Z,6.38
2023-02-01T10:59:38.520Z,6.49
2023-02-01T11:02:27.344Z,6.54
2023-02-01T11:05:11.127Z,6.60
2023-02-01T11:07:38.685Z,6.65
2023-02-01T11:10:05.761Z,6.74
2023-02-01T11:12:36.822Z,6.94
2023-02-01T11:15:23.710Z,7.06
2023-02-01T11:17:52.804Z,7.30
2023-02-01T11:20:35.468Z,7.32
2023-02-01T11:23:02.488Z,7.23
2023-02-01T11:25:29.448Z,7.30
2023-02-01T11:27:57.429Z,7.53
2023-02-01T11:30:33.789Z,7.58
2023-02-01T11:33:01.654Z,7.56
2023-02-01T11:35:30.671Z,7.61
2023-02-01T11:37:59.983Z,7.67
2023-02-01T11:40:30.304Z,7.78
2023-02-01T11:43:07.848Z,7.88
2023-02-01T11:45:35.914Z,7.94
2023-02-01T11:48:02.555Z,8.04
2023-02-01T11:50:48.535Z,8.24
2023-02-01T11:53:26.907Z,8.40
2023-02-01T11:56:08.197Z,8.34
2023-02-01T11:58:51.670Z,8.34
2023-02-01T12:01:43.030Z,8.35
2023-02-01T12:04:24.624Z,8.55
2023-02-01T12:06:52.790Z,8.64
2023-02-01T12:09:32.235Z,8.63
2023-02-01T12:12:16.824Z,8.65
2023-02-01T12:14:43.211Z,8.71
2023-02-01T12:17:34.413Z,8.87
2023-02-01T12:20:41.308Z,8.99
2023-02-01T12:23:18.812Z,9.23
2023-02-01T12:26:19.658Z,9.34
2023-02-01T12:29:23.708Z,9.42
2023-02-01T12:32:23.115Z,9.41
2023-02-01T12:35:23.650Z,9.55
2023-02-01T12:38:38.829Z,9.64
2023-02-01T12:41:33.377Z,9.71
2023-02-01T12:44:12.132Z,9.82
2023-02-01T12:46:44.698Z,9.87
2023-02-01T12:49:31.631Z,9.93
2023-02-01T12:52:11.978Z,9.96
2023-02-01T12:54:47.539Z,10.06
2023-02-01T12:57:34.755Z,10.05
2023-02-01T13:00:34.164Z,10.12
2023-02-01T13:03:33.641Z,10.17
2023-02-01T13:06:08.121Z,10.15
2023-02-01T13:08:55.004Z,10.22
2023-02-01T13:11:50.033Z,10.42
2023-02-01T13:14:19.940Z,10.45
2023-02-01T13:16:53.432Z,10.50
2023-02-01T13:19:31.499Z,10.59
2023-02-01T13:22:08.605Z,10.62
2023-02-01T13:24:48.525Z,10.60
2023-02-01T13:27:19.116Z,10.65
2023-02-01T13:29:56.233Z,10.68
2023-02-01T13:33:50.854Z,10.71
2023-02-01T13:36:32.382Z,10.72
2023-02-01T13:39:23.901Z,10.83
2023-02-01T13:42:06.233Z,10.89
2023-02-01T13:44:43.807Z,10.95
2023-02-01T13:47:30.966Z,11.08
2023-02-01T13:50:04.865Z,11.19
2023-02-01T13:52:49.950Z,11.17
2023-02-01T13:55:32.446Z,11.29
2023-02-01T13:58:22.644Z,11.46
2023-02-01T14:00:57.302Z,11.49
2023-02-01T14:03:50.635Z,11.57
2023-02-01T14:06:44.547Z,11.53
2023-02-01T14:09:14.501Z,11.46
2023-02-01T14:11:54.556Z,11.42
2023-02-01T14:14:24.452Z,11.66
2023-02-01T14:16:53.930Z,11.75
2023-02-01T14:19:26.327Z,11.92
2023-02-01T14:22:01.462Z,12.01
2023-02-01T14:24:29.609Z,11.94
2023-02-01T14:27:18.363Z,11.92
2023-02-01T14:29:59.472Z,11.93
2023-02-01T14:32:32.148Z,11.98
2023-02-01T14:35:02.764Z,12.03
2023-02-01T14:37:33.631Z,12.06
2023-02-01T14:40:15.330Z,11.98
2023-02-01T14:42:44.894Z,11.92
2023-02-01T14:45:23.906Z,12.05
2023-02-01T14:47:53.335Z,12.06
2023-02-01T14:50:37.637Z,12.10
2023-02-01T14:53:13.494Z,11.97
2023-02-01T14:55:59.799Z,11.92
2023-02-01T14:58:35.349Z,11.88
2023-02-01T15:01:06.665Z,11.96
2023-02-01T15:03:42.426Z,11.95
2023-02-01T15:06:26.358Z,11.90
2023-02-01T15:09:00.419Z,11.80
2023-02-01T15:11:26.997Z,11.75
2023-02-01T15:13:55.629Z,11.76
2023-02-01T15:16:25.647Z,11.76
2023-02-01T15:19:09.706Z,11.70
2023-02-01T15:21:49.700Z,11.75
2023-02-01T15:24:22.988Z,11.72
2023-02-01T15:26:49.959Z,11.67
2023-02-01T15:29:17.560Z,11.62
2023-02-01T15:31:47.719Z,11.53
2023-02-01T15:34:14.962Z,11.57
2023-02-01T15:36:56.639Z,11.59
2023-02-01T15:39:27.003Z,11.49
2023-02-01T15:41:57.871Z,11.39
2023-02-01T15:44:38.392Z,11.24
2023-02-01T15:47:20.915Z,11.28
2023-02-01T15:49:52.255Z,11.17
2023-02-01T15:52:18.594Z,11.07
2023-02-01T15:54:50.514Z,11.02
2023-02-01T15:57:33.928Z,11.08
2023-02-01T16:00:05.030Z,11.03
2023-02-01T16:02:53.848Z,10.97
2023-02-01T16:05:41.336Z,10.88
2023-02-01T16:08:17.043Z,10.79
2023-02-01T16:10:49.280Z,10.75
2023-02-01T16:13:17.717Z,10.80
2023-02-01T16:15:44.577Z,10.80
2023-02-01T16:18:12.042Z,10.76
2023-02-01T16:20:40.895Z,10.71
2023-02-01T16:23:09.188Z,10.68
2023-02-01T16:25:36.685Z,10.67
2023-02-01T16:28:03.361Z,10.66
2023-02-01T16:30:29.898Z,10.61
2023-02-01T16:32:58.814Z,10.55
2023-02-01T16:35:32.338Z,10.45
2023-02-01T16:37:59.677Z,10.40
2023-02-01T16:40:26.329Z,10.33
2023-02-01T16:42:58.825Z,10.14
2023-02-01T16:45:25.757Z,9.95
2023-02-01T16:47:55.612Z,9.86
2023-02-01T16:50:24.524Z,9.76
2023-02-01T16:52:52.541Z,9.69
2023-02-01T16:55:22.714Z,9.66
2023-02-01T16:57:49.784Z,9.58
2023-02-01T17:00:25.490Z,9.50
2023-02-01T17:02:53.725Z,9.42
2023-02-01T17:05:20.242Z,9.40
2023-02-01T17:07:46.845Z,9.37
2023-02-01T17:10:34.015Z,9.30
2023-02-01T17:13:01.111Z,9.21
2023-02-01T17:15:34.795Z,9.13
2023-02-01T17:18:02.739Z,9.07
2023-02-01T17:20:32.873Z,8.99
2023-02-01T17:22:59.766Z,8.96
2023-02-01T17:25:27.117Z,8.87
2023-02-01T17:27:53.750Z,8.83
2023-02-01T17:30:20.294Z,8.81
2023-02-01T17:32:46.794Z,8.79
2023-02-01T17:35:25.796Z,8.75
2023-02-01T17:37:58.444Z,8.69
2023-02-01T17:40:30.191Z,8.59
2023-02-01T17:42:58.061Z,8.52
2023-02-01T17:45:24.803Z,8.48
2023-02-01T17:47:51.388Z,8.48
2023-02-01T17:50:18.051Z,8.44
2023-02-01T17:52:44.559Z,8.50
2023-02-01T17:55:23.448Z,8.55
2023-02-01T17:57:50.524Z,8.60
2023-02-01T18:00:18.520Z,8.59
2023-02-01T18:02:45.462Z,8.56
2023-02-01T18:05:16.657Z,8.56
2023-02-01T18:07:43.057Z,8.53
2023-02-01T18:10:11.291Z,8.51
2023-02-01T18:12:39.097Z,8.53
2023-02-01T18:15:21.133Z,8.55
2023-02-01T18:17:47.935Z,8.51
2023-02-01T18:20:20.933Z,8.43
2023-02-01T18:22:50.968Z,8.35
2023-02-01T18:25:26.565Z,8.28
2023-02-01T18:27:55.016Z,8.23
2023-02-01T18:30:23.414Z,8.14
2023-02-01T18:32:50.134Z,8.07
2023-02-01T18:35:31.406Z,8.00
2023-02-01T18:37:58.754Z,8.03
2023-02-01T18:40:34.470Z,8.03
2023-02-01T18:43:01.180Z,7.99
2023-02-01T18:45:37.660Z,7.94
2023-02-01T18:48:06.072Z,7.88
2023-02-01T18:50:35.315Z,7.84
2023-02-01T18:53:04.644Z,7.85
2023-02-01T18:55:34.500Z,7.84
2023-02-01T18:58:03.120Z,7.85
2023-02-01T19:00:29.730Z,7.84
2023-02-01T19:02:56.488Z,7.87
2023-02-01T19:05:23.357Z,7.82
2023-02-01T19:07:50.429Z,7.80
2023-02-01T19:10:21.244Z,7.71
2023-02-01T19:12:48.822Z,7.66
2023-02-01T19:15:15.836Z,7.60
2023-02-01T19:17:44.933Z,7.62
2023-02-01T19:20:14.875Z,7.61
2023-02-01T19:22:41.677Z,7.52
2023-02-01T19:25:13.103Z,7.56
2023-02-01T19:27:39.411Z,7.57
2023-02-01T19:30:06.473Z,7.52
2023-02-01T19:32:33.005Z,7.44
2023-02-01T19:34:59.471Z,7.34
2023-02-01T19:37:25.989Z,7.27
2023-02-01T19:39:52.421Z,7.24
2023-02-01T19:42:19.078Z,7.19
2023-02-01T19:44:45.567Z,7.16
2023-02-01T19:47:12.108Z,7.16
2023-02-01T19:49:38.629Z,7.15
2023-02-01T19:52:05.344Z,7.09
2023-02-01T19:54:31.768Z,7.05
2023-02-01T19:56:58.164Z,6.98
2023-02-01T19:59:24.628Z,6.99
2023-02-01T20:01:51.566Z,6.90
2023-02-01T20:04:18.718Z,6.93
2023-02-01T20:06:49.320Z,6.94
2023-02-01T20:09:21.864Z,6.88
2023-02-01T20:11:49.398Z,6.82
2023-02-01T20:14:16.410Z,6.77
2023-02-01T20:16:43.080Z,6.67
2023-02-01T20:19:10.701Z,6.65
2023-02-01T20:21:38.633Z,6.72
2023-02-01T20:24:05.856Z,6.79
2023-02-01T20:26:34.475Z,6.86
2023-02-01T20:29:02.136Z,6.89
2023-02-01T20:31:29.747Z,6.89
2023-02-01T20:34:00.916Z,6.91
2023-02-01T20:36:28.796Z,6.95
2023-02-01T20:38:55.812Z,6.97
2023-02-01T20:41:23.132Z,6.88
2023-02-01T20:43:50.022Z,6.82
2023-02-01T20:46:17.109Z,6.80
2023-02-01T20:48:48.387Z,6.81
2023-02-01T20:51:17.184Z,6.86
2023-02-01T20:53:44.116Z,6.90
2023-02-01T20:56:12.724Z,7.01
2023-02-01T20:58:39.636Z,7.05
2023-02-01T21:01:06.831Z,7.10
2023-02-01T21:03:33.680Z,7.17
2023-02-01T21:06:01.126Z,7.16
2023-02-01T21:08:29.126Z,7.16
2023-02-01T21:10:57.449Z,7.16
2023-02-01T21:13:25.788Z,7.24
2023-02-01T21:15:52.569Z,7.32
2023-02-01T21:18:19.112Z,7.36
2023-02-01T21:20:47.210Z,7.30
2023-02-01T21:23:14.829Z,7.30
2023-02-01T21:25:42.393Z,7.19
2023-02-01T21:28:09.593Z,7.14
2023-02-01T21:30:36.783Z,7.12
2023-02-01T21:33:03.526Z,7.12
2023-02-01T21:35:30.318Z,7.17
2023-02-01T21:37:56.811Z,7.20
2023-02-01T21:40:23.353Z,7.22
2023-02-01T21:42:49.885Z,7.19
2023-02-01T21:45:17.572Z,7.15
2023-02-01T21:47:44.337Z,7.12
2023-02-01T21:50:17.024Z,7.09
2023-02-01T21:52:43.894Z,7.02
2023-02-01T21:55:11.160Z,6.90
2023-02-01T21:57:37.604Z,6.81
2023-02-01T22:00:06.052Z,6.78
2023-02-01T22:02:32.569Z,6.76
2023-02-01T22:04:59.026Z,6.73
2023-02-01T22:07:25.543Z,6.66
2023-02-01T22:09:52.007Z,6.63
2023-02-01T22:12:18.766Z,6.62
2023-02-01T22:14:46.361Z,6.61
2023-02-01T22:17:13.538Z,6.63
2023-02-01T22:19:40.605Z,6.57
2023-02-01T22:22:07.126Z,6.53
2023-02-01T22:24:35.906Z,6.52
2023-02-01T22:27:14.317Z,6.48
2023-02-01T22:29:42.060Z,6.44
2023-02-01T22:32:08.809Z,6.42
2023-02-01T22:34:35.246Z,6.37
2023-02-01T22:37:01.660Z,6.36
2023-02-01T22:39:28.107Z,6.35
2023-02-01T22:41:54.536Z,6.32
2023-02-01T22:44:21.101Z,6.31
2023-02-01T22:46:47.545Z,6.34
2023-02-01T22:49:14.078Z,6.32
2023-02-01T22:51:40.794Z,6.34
2023-02-01T22:54:14.413Z,6.35
2023-02-01T22:56:40.850Z,6.28
2023-02-01T22:59:10.532Z,6.24
2023-02-01T23:01:36.971Z,6.24
2023-02-01T23:04:05.777Z,6.19
2023-02-01T23:06:33.730Z,6.13
2023-02-01T23:09:03.882Z,6.14
2023-02-01T23:11:31.596Z,6.12
2023-02-01T23:13:58.044Z,6.12
2023-02-01T23:16:24.756Z,6.08
2023-02-01T23:18:51.281Z,6.11
2023-02-01T23:21:20.630Z,6.07
2023-02-01T23:23:49.151Z,6.02
2023-02-01T23:26:16.384Z,6.02
2023-02-01T23:28:43.095Z,6.04
2023-02-01T23:31:11.191Z,5.99
2023-02-01T23:33:38.461Z,5.96
2023-02-01T23:36:08.051Z,6.01
2023-02-01T23:38:34.920Z,6.01
2023-02-01T23:41:04.107Z,5.96
2023-02-01T23:43:49.383Z,5.92
2023-02-01T23:46:16.869Z,5.92
2023-02-01T23:48:44.459Z,5.93
2023-02-01T23:51:12.021Z,5.88
2023-02-01T23:53:38.692Z,5.85
2023-02-01T23:56:06.259Z,5.84
2023-02-01T23:58:33.401Z,5.77
